Terminal Aerodrome Forecast
Issued by NWS

Home | Current Version | Previous Version | Text Only | Print | Product List | Glossary On
Versions: 1 2 3 4 5 6 7 8 9 10 11 12 13 14 15 16 17 18 19 20 21 22 23
000
FTUS41 KALY 011300 AAB
TAFPSF
TAF AMD
KPSF 011332Z 0114/0212 VRB03KT 6SM BR BKN008
     FM011400 21005KT P6SM SCT008 SCT120
     FM011800 20007KT P6SM BKN040
     FM020000 20005KT P6SM SCT050 SCT100 BKN250
     FM020400 VRB03KT 4SM BR BKN100 BKN250
     FM020800 VRB03KT 2SM BR BKN050 BKN100=

USA.gov is the U.S. government's official web portal to all federal, state and local government web resources and services.